Purdue University Airport
KLAF : now visible

Airfield :











YOU CAN JOIN US ON...

 
LOGIN :

Register | Disclaimer

   EN    FR    IT 

 









Legend :    VFR   Marginal VFR   IFR   Intensive IFR   Very Intensive IFR
Visi :
Ceiling :
>= 8 km
>= 3000ft
5 to 8 km
1000 to 3000 ft
1500m to 5 km
500 to 1000 ft
800 to 1500m
200 to 500 ft
< 800m
< 200 ft
Symbols :   Thunderstorms  Fog  Heavy snow  Heavy precipitations  Wind > 20 kt






- Airport Elevation : 606 ft
- IATA code : LAF


KLAF - Purdue University

CURRENT METAR :
  • 261654Z 35011KT 3/4SM -SN BR FEW009 OVC016 M01/M02 A2996 RMK AO2 SLP152 P0001 T10111017

EXPIRED METARs :
  • 261623Z 36014G20KT 3/4SM -SN BR SCT010 BKN024 OVC036 M01/M02 A2997 RMK AO2 P0000 T10111022
  • 261609Z 35008KT 1 1/4SM -SN BR BKN010 BKN028 OVC040 M01/M02 A2997 RMK AO2 P0000 T10111022
  • 261554Z 36011KT 1 1/2SM -SN BR SCT011 OVC038 M01/M02 A2996 RMK AO2 SLP151 P0001 T10111022
  • 261547Z 35011G20KT 1 1/2SM -SN BR SCT011 OVC038 M01/M02 A2996 RMK AO2 P0001 T10111022
  • 261536Z 35008G18KT 2SM -SN BR SCT011 OVC036 M01/M03 A2996 RMK AO2 P0000 T10111028
  • 261518Z 35013G20KT 2SM -SN BR BKN011 OVC034 M01/M02 A2996 RMK AO2 P0000 T10111022
  • 261505Z 35012KT 2 1/2SM -SN BR SCT012 BKN034 OVC075 M01/M02 A2996 RMK AO2 P0000 T10111022
  • 261454Z 35010KT 3SM -SN BR SCT012 BKN050 OVC075 M02/M02 A2996 RMK AO2 SLP152 P0000 60003 T10171022 53002
  • 261437Z 36012G22KT 3SM -SN BR SCT010 SCT017 OVC075 M01/M02 A2996 RMK AO2 P0000 T10111022
  • 261433Z 36015G22KT 3SM -SN BR BKN012 BKN037 OVC075 M01/M02 A2996 RMK AO2 P0000 T10111022

TAF KLAF
Valid from the 26 at 12:00 until the 27 at 12:00 UTC


261126Z 2612/2712 01011KT 1 1/2SM -SN BR OVC008
FM261800 35015G25KT 1SM -SN BR OVC012
FM262300 33016G24KT P6SM VCSH OVC020
FM270300 31014KT P6SM BKN025 AMD LTD TO CLD VIS AND WIND TIL 261400



MET'MAP, your aeronautical weather chart ! - Copyright ORBIFLY December 2007 - Disclaimer

ORBIFLY MET'MAP TEAM :

Programming & Development : Alexandra Zaïnal
Concept & original design : Baudouin d'Aumeries
Assistance for programming : Marc-Olivier Méhu
Technical & hardware support : Manuel Goepfert

Contact : metmap@orbifly.com




SOURCES & CREDITS :

   NOAA       Earth
Advisory